createdAt,value
2023-05-02T00:02:47.198Z,2.90
2023-05-02T00:05:49.537Z,3.33
2023-05-02T00:08:51.916Z,2.63
2023-05-02T00:11:54.184Z,3.07
2023-05-02T00:14:56.523Z,2.53
2023-05-02T00:17:59.004Z,2.83
2023-05-02T00:21:01.421Z,2.70
2023-05-02T00:24:03.835Z,2.50
2023-05-02T00:27:07.102Z,2.60
2023-05-02T00:30:10.023Z,2.58
2023-05-02T00:33:14.508Z,2.55
2023-05-02T00:36:19.794Z,2.28
2023-05-02T00:39:22.416Z,2.47
2023-05-02T00:42:24.800Z,2.20
2023-05-02T00:45:27.366Z,2.30
2023-05-02T00:48:29.851Z,2.58
2023-05-02T00:51:33.943Z,2.20
2023-05-02T00:54:39.447Z,2.30
2023-05-02T00:57:41.786Z,2.00
2023-05-02T01:00:57.366Z,2.20
2023-05-02T01:04:31.701Z,2.20
2023-05-02T01:07:52.156Z,2.92
2023-05-02T01:11:12.696Z,2.05
2023-05-02T01:14:15.585Z,2.47
2023-05-02T01:17:19.961Z,2.20
2023-05-02T01:20:27.150Z,2.83
2023-05-02T01:23:41.294Z,1.92
2023-05-02T01:26:58.719Z,2.40
2023-05-02T01:30:03.764Z,2.20
2023-05-02T01:33:08.350Z,2.20
2023-05-02T01:36:14.187Z,2.28
2023-05-02T01:39:22.323Z,2.25
2023-05-02T01:42:25.721Z,2.00
2023-05-02T01:45:28.769Z,2.07
2023-05-02T01:48:31.554Z,2.70
2023-05-02T01:51:37.201Z,2.40
2023-05-02T01:54:41.208Z,2.50
2023-05-02T01:57:46.081Z,2.20
2023-05-02T02:00:49.618Z,2.17
2023-05-02T02:03:55.025Z,2.60
2023-05-02T02:07:13.113Z,2.22
2023-05-02T02:10:15.499Z,2.25
2023-05-02T02:13:22.542Z,2.17
2023-05-02T02:16:29.291Z,2.20
2023-05-02T02:19:33.383Z,2.08
2023-05-02T02:22:39.217Z,2.30
2023-05-02T02:25:43.811Z,2.03
2023-05-02T02:28:46.460Z,1.60
2023-05-02T02:31:49.829Z,1.80
2023-05-02T02:34:52.200Z,1.80
2023-05-02T02:38:07.980Z,1.95
2023-05-02T02:41:27.587Z,2.00
2023-05-02T02:45:07.974Z,1.88
2023-05-02T02:48:30.234Z,1.97
2023-05-02T02:51:39.895Z,1.60
2023-05-02T02:54:50.174Z,1.67
2023-05-02T02:58:03.623Z,2.00
2023-05-02T03:01:12.277Z,1.98
2023-05-02T03:04:16.571Z,1.90
2023-05-02T03:07:18.954Z,1.98
2023-05-02T03:10:22.882Z,2.05
2023-05-02T03:13:25.494Z,1.63
2023-05-02T03:16:41.588Z,1.90
2023-05-02T03:19:48.740Z,2.00
2023-05-02T03:22:51.025Z,2.42
2023-05-02T03:25:53.371Z,2.20
2023-05-02T03:28:59.300Z,2.28
2023-05-02T03:32:07.355Z,2.55
2023-05-02T03:35:11.593Z,2.80
2023-05-02T03:38:18.082Z,4.40
2023-05-02T03:41:24.871Z,3.75
2023-05-02T03:44:34.175Z,2.80
2023-05-02T03:47:36.587Z,4.20
2023-05-02T03:50:38.887Z,2.60
2023-05-02T03:53:41.406Z,2.75
2023-05-02T03:56:44.095Z,2.80
2023-05-02T03:59:56.268Z,2.50
2023-05-02T04:03:03.634Z,2.53
2023-05-02T04:06:08.306Z,2.50
2023-05-02T04:09:11.255Z,3.00
2023-05-02T04:12:36.454Z,2.67
2023-05-02T04:15:39.065Z,2.42
2023-05-02T04:18:42.301Z,2.60
2023-05-02T04:21:46.072Z,2.63
2023-05-02T04:24:49.888Z,2.15
2023-05-02T04:27:52.573Z,2.35
2023-05-02T04:30:58.177Z,2.35
2023-05-02T04:34:02.483Z,2.35
2023-05-02T04:37:09.728Z,2.93
2023-05-02T04:40:13.011Z,2.45
2023-05-02T04:43:15.566Z,3.03
2023-05-02T04:46:24.128Z,2.63
2023-05-02T04:49:26.857Z,2.55
2023-05-02T04:52:30.415Z,2.47
2023-05-02T04:55:33.041Z,2.40
2023-05-02T04:58:35.524Z,3.03
2023-05-02T05:01:41.315Z,2.90
2023-05-02T05:04:46.068Z,2.55
2023-05-02T05:07:49.156Z,2.50
2023-05-02T05:10:53.113Z,2.50
2023-05-02T05:13:58.437Z,2.60
2023-05-02T05:17:02.557Z,2.55
2023-05-02T05:20:06.636Z,2.70
2023-05-02T05:23:10.329Z,3.03
2023-05-02T05:26:16.643Z,2.55
2023-05-02T05:29:22.288Z,2.67
2023-05-02T05:32:26.263Z,3.28
2023-05-02T05:35:29.477Z,3.10
2023-05-02T05:38:34.756Z,3.50
2023-05-02T05:41:38.467Z,3.22
2023-05-02T05:44:43.804Z,3.03
2023-05-02T05:47:46.409Z,3.00
2023-05-02T05:50:50.483Z,3.20
2023-05-02T05:53:52.917Z,2.97
2023-05-02T05:56:55.640Z,3.10
2023-05-02T05:59:59.720Z,3.50
2023-05-02T06:03:05.042Z,2.97
2023-05-02T06:06:09.048Z,3.20
2023-05-02T06:09:11.908Z,3.70
2023-05-02T06:12:16.433Z,3.58
2023-05-02T06:15:19.447Z,3.65
2023-05-02T06:18:21.794Z,3.30
2023-05-02T06:21:24.092Z,3.20
2023-05-02T06:24:26.616Z,3.80
2023-05-02T06:27:29.876Z,3.33
2023-05-02T06:30:33.094Z,4.50
2023-05-02T06:33:36.880Z,3.20
2023-05-02T06:36:39.151Z,3.28
2023-05-02T06:39:41.417Z,3.60
2023-05-02T06:42:43.803Z,3.38
2023-05-02T06:45:47.072Z,3.97
2023-05-02T06:48:49.436Z,3.40
2023-05-02T06:51:51.707Z,2.60
2023-05-02T06:54:53.975Z,3.80
2023-05-02T06:57:56.302Z,2.88
2023-05-02T07:00:58.712Z,4.10
2023-05-02T07:04:05.954Z,4.07
2023-05-02T07:07:08.353Z,3.20
2023-05-02T07:10:11.628Z,4.10
2023-05-02T07:13:15.971Z,4.03
2023-05-02T07:16:18.331Z,4.13
2023-05-02T07:19:20.681Z,3.90
2023-05-02T07:22:22.948Z,3.72
2023-05-02T07:25:25.671Z,3.70
2023-05-02T07:28:27.903Z,2.92
2023-05-02T07:31:30.237Z,3.35
2023-05-02T07:34:33.364Z,3.33
2023-05-02T07:37:36.547Z,3.30
2023-05-02T07:40:39.034Z,3.50
2023-05-02T07:43:41.499Z,3.85
2023-05-02T07:46:43.757Z,2.90
2023-05-02T07:49:46.366Z,3.00
2023-05-02T07:52:48.739Z,3.47
2023-05-02T07:55:51.163Z,4.13
2023-05-02T07:58:53.499Z,3.00
2023-05-02T08:01:56.064Z,2.67
2023-05-02T08:04:58.411Z,3.60
2023-05-02T08:08:01.952Z,3.58
2023-05-02T08:11:04.630Z,3.17
2023-05-02T08:14:07.145Z,3.63
2023-05-02T08:17:10.273Z,3.75
2023-05-02T08:20:12.698Z,4.00
2023-05-02T08:23:15.094Z,3.90
2023-05-02T08:26:19.140Z,3.40
2023-05-02T08:29:21.513Z,3.10
2023-05-02T08:32:26.178Z,3.30
2023-05-02T08:35:34.305Z,3.70
2023-05-02T08:38:36.566Z,2.78
2023-05-02T08:41:39.362Z,2.87
2023-05-02T08:44:41.679Z,3.50
2023-05-02T08:47:45.900Z,3.28
2023-05-02T08:50:51.189Z,2.60
2023-05-02T08:53:54.946Z,3.70
2023-05-02T08:57:00.131Z,3.20
2023-05-02T09:00:02.590Z,3.35
2023-05-02T09:03:13.751Z,2.25
2023-05-02T09:06:21.013Z,2.92
2023-05-02T09:09:23.519Z,3.20
2023-05-02T09:12:27.236Z,2.97
2023-05-02T09:15:29.584Z,2.00
2023-05-02T09:18:34.135Z,2.65
2023-05-02T09:21:41.275Z,3.45
2023-05-02T09:24:44.527Z,2.95
2023-05-02T09:27:54.766Z,1.97
2023-05-02T09:31:10.338Z,1.50
2023-05-02T09:34:14.540Z,3.28
2023-05-02T09:37:38.203Z,2.70
2023-05-02T09:40:54.563Z,3.25
2023-05-02T09:43:57.688Z,2.23
2023-05-02T09:47:02.299Z,3.10
2023-05-02T09:50:06.470Z,2.38
2023-05-02T09:53:10.001Z,2.33
2023-05-02T09:56:12.450Z,3.50
2023-05-02T09:59:16.439Z,2.40
2023-05-02T10:02:21.935Z,3.13
2023-05-02T10:05:24.965Z,3.33
2023-05-02T10:08:28.692Z,2.85
2023-05-02T10:11:32.578Z,2.58
2023-05-02T10:14:41.347Z,2.43
2023-05-02T10:17:48.988Z,3.50
2023-05-02T10:20:58.774Z,3.15
2023-05-02T10:24:05.108Z,3.15
2023-05-02T10:27:08.253Z,2.70
2023-05-02T10:30:13.081Z,2.83
2023-05-02T10:33:17.376Z,3.20
2023-05-02T10:36:23.702Z,4.18
2023-05-02T10:39:27.432Z,3.00
2023-05-02T10:42:30.740Z,2.45
2023-05-02T10:45:36.920Z,2.70
2023-05-02T10:48:42.337Z,2.50
2023-05-02T10:51:44.752Z,2.63
2023-05-02T10:54:47.158Z,3.50
2023-05-02T10:58:02.545Z,3.05
2023-05-02T11:01:29.832Z,2.90
2023-05-02T11:05:02.283Z,2.25
2023-05-02T11:08:19.306Z,3.05
2023-05-02T11:11:44.231Z,2.20
2023-05-02T11:14:48.486Z,3.42
2023-05-02T11:18:07.669Z,3.30
2023-05-02T11:21:30.037Z,2.35
2023-05-02T11:24:43.083Z,3.30
2023-05-02T11:27:47.732Z,2.20
2023-05-02T11:30:51.072Z,2.42
2023-05-02T11:34:01.388Z,2.20
2023-05-02T11:37:12.321Z,2.95
2023-05-02T11:40:15.567Z,3.20
2023-05-02T11:43:21.601Z,3.65
2023-05-02T11:46:23.930Z,2.10
2023-05-02T11:49:26.951Z,3.00
2023-05-02T11:52:30.789Z,3.00
2023-05-02T11:55:33.216Z,2.60
2023-05-02T11:58:35.546Z,2.17
2023-05-02T12:01:47.139Z,2.80
2023-05-02T12:04:49.579Z,2.73
2023-05-02T12:07:51.867Z,3.20
2023-05-02T12:10:55.780Z,2.80
2023-05-02T12:13:58.206Z,3.28
2023-05-02T12:17:01.869Z,3.10
2023-05-02T12:20:06.474Z,3.60
2023-05-02T12:23:10.196Z,2.90
2023-05-02T12:26:21.404Z,3.92
2023-05-02T12:29:38.209Z,3.30
2023-05-02T12:32:45.501Z,2.72
2023-05-02T12:35:48.309Z,2.23
2023-05-02T12:38:59.934Z,3.05
2023-05-02T12:42:28.976Z,2.45
2023-05-02T12:45:34.651Z,3.53
2023-05-02T12:48:37.190Z,2.35
2023-05-02T12:51:41.458Z,1.87
2023-05-02T12:54:44.600Z,2.10
2023-05-02T12:57:48.368Z,2.28
2023-05-02T13:00:50.598Z,2.25
2023-05-02T13:03:53.041Z,2.30
2023-05-02T13:06:55.602Z,2.30
2023-05-02T13:09:58.098Z,1.80
2023-05-02T13:13:01.045Z,2.25
2023-05-02T13:16:03.811Z,2.60
2023-05-02T13:19:06.292Z,2.63
2023-05-02T13:22:09.141Z,2.67
2023-05-02T13:25:12.359Z,1.95
2023-05-02T13:28:14.719Z,2.72
2023-05-02T13:31:17.080Z,2.28
2023-05-02T13:34:19.381Z,2.35
2023-05-02T13:37:21.829Z,3.00
2023-05-02T13:40:24.143Z,2.30
2023-05-02T13:43:26.422Z,2.70
2023-05-02T13:46:28.950Z,2.40
2023-05-02T13:49:31.319Z,2.67
2023-05-02T13:52:34.135Z,2.40
2023-05-02T13:55:36.427Z,2.08
2023-05-02T13:58:39.345Z,2.38
2023-05-02T14:01:41.686Z,1.75
2023-05-02T14:04:44.153Z,2.30
2023-05-02T14:07:46.853Z,2.17
2023-05-02T14:10:49.222Z,2.85
2023-05-02T14:13:51.581Z,3.00
2023-05-02T14:16:53.980Z,2.45
2023-05-02T14:19:56.387Z,4.05
2023-05-02T14:22:58.725Z,3.50
2023-05-02T14:26:02.106Z,2.90
2023-05-02T14:29:04.513Z,2.97
2023-05-02T14:32:07.041Z,2.80
2023-05-02T14:35:10.145Z,3.13
2023-05-02T14:38:12.534Z,2.90
2023-05-02T14:41:15.158Z,2.85
2023-05-02T14:44:18.415Z,2.53
2023-05-02T14:47:21.104Z,2.50
2023-05-02T14:50:23.760Z,2.45
2023-05-02T14:53:26.630Z,2.57
2023-05-02T14:56:28.960Z,3.28
2023-05-02T14:59:31.518Z,2.95
2023-05-02T15:02:34.565Z,2.60
2023-05-02T15:05:37.162Z,2.28
2023-05-02T15:08:39.686Z,2.00
2023-05-02T15:11:42.631Z,3.08
2023-05-02T15:14:45.067Z,2.60
2023-05-02T15:17:47.614Z,3.15
2023-05-02T15:20:50.046Z,2.00
2023-05-02T15:23:52.917Z,2.50
2023-05-02T15:26:55.227Z,2.15
2023-05-02T15:29:57.526Z,2.65
2023-05-02T15:32:59.818Z,2.47
2023-05-02T15:36:02.584Z,2.90
2023-05-02T15:39:06.826Z,2.60
2023-05-02T15:42:09.193Z,2.80
2023-05-02T15:45:13.793Z,2.53
2023-05-02T15:48:16.294Z,2.38
2023-05-02T15:51:18.987Z,3.15
2023-05-02T15:54:21.406Z,3.27
2023-05-02T15:57:23.706Z,2.75
2023-05-02T16:00:26.757Z,3.08
2023-05-02T16:03:30.168Z,2.40
2023-05-02T16:06:34.157Z,3.22
2023-05-02T16:09:36.510Z,2.90
2023-05-02T16:12:38.814Z,3.00
2023-05-02T16:15:41.236Z,3.30
2023-05-02T16:18:43.525Z,3.58
2023-05-02T16:21:46.380Z,2.05
2023-05-02T16:24:48.644Z,2.77
2023-05-02T16:27:51.111Z,3.03
2023-05-02T16:30:53.385Z,3.25
2023-05-02T16:33:55.773Z,2.25
2023-05-02T16:36:58.146Z,2.80
2023-05-02T16:40:01.544Z,3.00
2023-05-02T16:43:04.271Z,2.88
2023-05-02T16:46:07.351Z,2.25
2023-05-02T16:49:09.727Z,2.38
2023-05-02T16:52:12.119Z,3.08
2023-05-02T16:55:14.614Z,1.70
2023-05-02T16:58:16.876Z,2.28
2023-05-02T17:01:19.260Z,2.20
2023-05-02T17:04:21.798Z,2.42
2023-05-02T17:07:24.088Z,2.78
2023-05-02T17:10:26.440Z,2.30
2023-05-02T17:13:28.861Z,3.00
2023-05-02T17:16:31.753Z,2.75
2023-05-02T17:19:35.034Z,2.70
2023-05-02T17:22:38.221Z,2.83
2023-05-02T17:25:41.728Z,3.30
2023-05-02T17:28:45.032Z,3.70
2023-05-02T17:31:47.513Z,3.90
2023-05-02T17:34:49.793Z,4.10
2023-05-02T17:37:52.032Z,3.63
2023-05-02T17:40:54.291Z,3.80
2023-05-02T17:43:57.249Z,4.03
2023-05-02T17:46:59.557Z,4.60
2023-05-02T17:50:04.754Z,4.00
2023-05-02T17:53:08.228Z,4.00
2023-05-02T17:56:10.834Z,4.03
2023-05-02T17:59:13.221Z,4.38
2023-05-02T18:02:17.780Z,3.88
2023-05-02T18:05:20.123Z,4.35
2023-05-02T18:08:22.488Z,4.00
2023-05-02T18:11:29.154Z,4.50
2023-05-02T18:14:31.569Z,4.18
2023-05-02T18:17:34.106Z,4.90
2023-05-02T18:20:40.794Z,4.53
2023-05-02T18:23:43.081Z,4.72
2023-05-02T18:26:48.438Z,5.30
2023-05-02T18:29:50.829Z,4.97
2023-05-02T18:32:53.168Z,4.93
2023-05-02T18:35:55.535Z,5.55
2023-05-02T18:38:58.006Z,5.60
2023-05-02T18:42:04.495Z,6.33
2023-05-02T18:45:08.250Z,5.70
2023-05-02T18:48:10.949Z,6.22
2023-05-02T18:51:13.493Z,5.50
2023-05-02T18:54:16.018Z,5.95
2023-05-02T18:57:18.299Z,5.93
2023-05-02T19:00:21.002Z,6.35
2023-05-02T19:03:23.974Z,6.88
2023-05-02T19:06:26.961Z,6.65
2023-05-02T19:09:29.338Z,6.93
2023-05-02T19:12:31.629Z,7.10
2023-05-02T19:15:34.296Z,7.00
2023-05-02T19:18:36.569Z,7.20
2023-05-02T19:21:38.932Z,7.03
2023-05-02T19:24:41.229Z,7.38
2023-05-02T19:27:47.824Z,7.07
2023-05-02T19:30:50.191Z,6.90
2023-05-02T19:33:52.757Z,6.93
2023-05-02T19:36:55.354Z,7.25
2023-05-02T19:39:58.156Z,6.47
2023-05-02T19:43:00.522Z,7.10
2023-05-02T19:46:02.984Z,7.43
2023-05-02T19:49:05.306Z,7.43
2023-05-02T19:52:10.178Z,7.20
2023-05-02T19:55:12.544Z,7.30
2023-05-02T19:58:14.912Z,7.57
2023-05-02T20:01:17.965Z,7.57
2023-05-02T20:04:20.488Z,7.80
2023-05-02T20:07:22.781Z,7.70
2023-05-02T20:10:25.137Z,7.75
2023-05-02T20:13:27.484Z,7.33
2023-05-02T20:16:31.537Z,7.50
2023-05-02T20:19:33.914Z,7.95
2023-05-02T20:22:36.296Z,7.60
2023-05-02T20:25:40.284Z,8.00
2023-05-02T20:28:42.798Z,7.30
2023-05-02T20:31:45.169Z,7.45
2023-05-02T20:34:47.542Z,7.60
2023-05-02T20:37:50.380Z,7.10
2023-05-02T20:40:53.232Z,7.75
2023-05-02T20:43:57.157Z,7.00
2023-05-02T20:47:01.363Z,6.90
2023-05-02T20:50:04.139Z,7.30
2023-05-02T20:53:06.604Z,8.38
2023-05-02T20:56:09.050Z,7.22
2023-05-02T20:59:11.724Z,6.80
2023-05-02T21:02:14.082Z,7.18
2023-05-02T21:05:16.561Z,8.40
2023-05-02T21:08:19.065Z,8.18
2023-05-02T21:11:21.799Z,9.15
2023-05-02T21:14:25.373Z,8.73
2023-05-02T21:17:28.686Z,8.60
2023-05-02T21:20:31.215Z,7.57
2023-05-02T21:23:33.491Z,8.50
2023-05-02T21:26:35.999Z,8.80
2023-05-02T21:29:38.365Z,8.30
2023-05-02T21:32:40.813Z,8.48
2023-05-02T21:35:43.744Z,8.80
2023-05-02T21:38:46.065Z,8.10
2023-05-02T21:41:48.283Z,7.65
2023-05-02T21:44:50.770Z,8.43
2023-05-02T21:47:53.128Z,7.90
2023-05-02T21:50:55.550Z,7.93
2023-05-02T21:53:57.922Z,8.07
2023-05-02T21:57:00.681Z,7.72
2023-05-02T22:00:04.342Z,6.90
2023-05-02T22:03:11.817Z,7.20
2023-05-02T22:06:14.414Z,7.82
2023-05-02T22:09:17.670Z,8.27
2023-05-02T22:12:26.917Z,7.10
2023-05-02T22:15:29.873Z,8.07
2023-05-02T22:18:32.309Z,8.00
2023-05-02T22:21:34.565Z,8.57
2023-05-02T22:24:38.171Z,8.32
2023-05-02T22:27:40.524Z,8.32
2023-05-02T22:30:45.528Z,7.37
2023-05-02T22:33:49.957Z,8.43
2023-05-02T22:36:52.320Z,8.70
2023-05-02T22:39:54.640Z,8.25
2023-05-02T22:42:57.601Z,8.73
2023-05-02T22:45:59.970Z,8.40
2023-05-02T22:49:02.943Z,8.05
2023-05-02T22:52:05.589Z,10.02
2023-05-02T22:55:09.459Z,9.20
2023-05-02T22:58:11.951Z,10.05
2023-05-02T23:01:14.272Z,10.37
2023-05-02T23:04:16.751Z,9.93
2023-05-02T23:07:19.311Z,8.55
2023-05-02T23:10:21.669Z,9.55
2023-05-02T23:13:24.136Z,9.45
2023-05-02T23:16:26.599Z,9.20
2023-05-02T23:19:29.646Z,8.40
2023-05-02T23:22:35.561Z,8.82
2023-05-02T23:25:38.756Z,10.23
2023-05-02T23:28:41.128Z,9.75
2023-05-02T23:31:43.910Z,8.60
2023-05-02T23:34:46.218Z,9.13
2023-05-02T23:37:49.454Z,8.57
2023-05-02T23:40:52.325Z,8.55
2023-05-02T23:43:54.535Z,8.77
2023-05-02T23:47:00.822Z,7.37
2023-05-02T23:50:03.951Z,8.30
2023-05-02T23:53:07.728Z,7.88
2023-05-02T23:56:10.078Z,7.13
2023-05-02T23:59:13.900Z,7.90
